Time;durP1;ratioP1;P1;durP2;ratioP2;P2;SDS_P1;SDS_P2;PMS_P1;PMS_P2;Temp;Humidity;BMP_temperature;BMP_pressure;BME280_temperature;BME280_humidity;BME280_pressure;Samples;Min_cycle;Max_cycle;Signal;HPM_P1;HPM_P2
2023/05/14 00:01:58;;;;;;;2.93;2.73;;;;;;;;;;5013420;28;20216;-56
2023/05/14 00:04:26;;;;;;;3.30;2.90;;;;;;;;;;5007411;28;20592;-56
2023/05/14 00:06:53;;;;;;;4.73;2.63;;;;;;;;;;4999588;28;20225;-56
2023/05/14 00:09:20;;;;;;;3.07;2.80;;;;;;;;;;4995494;28;20216;-56
2023/05/14 00:11:48;;;;;;;3.00;2.80;;;;;;;;;;4999151;28;20209;-56
2023/05/14 00:14:15;;;;;;;2.83;2.67;;;;;;;;;;5007114;28;20205;-56
2023/05/14 00:16:42;;;;;;;3.30;3.00;;;;;;;;;;4997441;28;20585;-56
2023/05/14 00:19:09;;;;;;;3.10;2.50;;;;;;;;;;4996470;28;20209;-56
2023/05/14 00:21:38;;;;;;;3.43;3.03;;;;;;;;;;5008225;28;20231;-57
2023/05/14 00:24:05;;;;;;;3.00;2.80;;;;;;;;;;5012321;28;20675;-56
2023/05/14 00:26:32;;;;;;;3.17;2.97;;;;;;;;;;5000208;28;20650;-56
2023/05/14 00:28:59;;;;;;;2.90;2.80;;;;;;;;;;5013024;28;20222;-56
2023/05/14 00:31:26;;;;;;;2.90;2.67;;;;;;;;;;5010610;28;20684;-56
2023/05/14 00:33:53;;;;;;;2.70;2.47;;;;;;;;;;5008939;28;20215;-56
2023/05/14 00:36:20;;;;;;;3.23;3.03;;;;;;;;;;5010717;28;20198;-56
2023/05/14 00:38:49;;;;;;;2.60;2.50;;;;;;;;;;4999897;28;20210;-56
2023/05/14 00:41:16;;;;;;;3.00;2.80;;;;;;;;;;4993481;28;20868;-56
2023/05/14 00:43:43;;;;;;;2.97;2.77;;;;;;;;;;5003102;28;20217;-56
2023/05/14 00:46:11;;;;;;;2.67;2.57;;;;;;;;;;5004777;28;20962;-56
2023/05/14 00:48:38;;;;;;;2.63;2.53;;;;;;;;;;5003281;28;20233;-56
2023/05/14 00:51:05;;;;;;;2.90;2.80;;;;;;;;;;5003632;28;20275;-56
2023/05/14 00:53:32;;;;;;;3.00;2.80;;;;;;;;;;5003272;28;20291;-56
2023/05/14 00:56:01;;;;;;;3.07;2.40;;;;;;;;;;4997401;28;20656;-56
2023/05/14 00:58:28;;;;;;;2.53;2.43;;;;;;;;;;5002278;28;20221;-56
2023/05/14 01:00:55;;;;;;;3.33;2.83;;;;;;;;;;4999426;28;20208;-56
2023/05/14 01:03:22;;;;;;;2.83;2.63;;;;;;;;;;4997754;28;20216;-56
2023/05/14 01:05:54;;;;;;;3.97;2.73;;;;;;;;;;5008032;28;20227;-56
2023/05/14 01:08:25;;;;;;;7.37;2.60;;;;;;;;;;5004788;28;20224;-56
2023/05/14 01:10:53;;;;;;;2.93;2.80;;;;;;;;;;5005830;28;20213;-56
2023/05/14 01:13:27;;;;;;;3.20;3.00;;;;;;;;;;5004065;28;20243;-56
2023/05/14 01:15:56;;;;;;;2.30;2.20;;;;;;;;;;5009733;28;20659;-56
2023/05/14 01:18:24;;;;;;;2.87;2.73;;;;;;;;;;5008104;28;20292;-56
2023/05/14 01:20:52;;;;;;;3.07;2.87;;;;;;;;;;4990842;28;20232;-56
2023/05/14 01:23:20;;;;;;;3.17;2.97;;;;;;;;;;4995265;28;20240;-57
2023/05/14 01:25:47;;;;;;;4.50;3.40;;;;;;;;;;5007349;28;20782;-57
2023/05/14 01:28:17;;;;;;;4.97;3.37;;;;;;;;;;5005442;28;20210;-57
2023/05/14 01:30:46;;;;;;;3.90;3.30;;;;;;;;;;5004241;28;20329;-57
2023/05/14 01:33:14;;;;;;;3.37;3.17;;;;;;;;;;5006174;28;20213;-56
2023/05/14 01:35:41;;;;;;;4.17;3.13;;;;;;;;;;4991863;28;20202;-57
2023/05/14 01:38:11;;;;;;;3.00;2.80;;;;;;;;;;5006291;28;20209;-57
2023/05/14 01:41:15;;;;;;;3.07;2.87;;;;;;;;;;5022585;28;20223;-58
2023/05/14 01:43:44;;;;;;;2.83;2.63;;;;;;;;;;4990089;28;20228;-55
2023/05/14 01:46:11;;;;;;;3.10;2.80;;;;;;;;;;5006949;28;20371;-56
2023/05/14 01:48:38;;;;;;;3.10;2.90;;;;;;;;;;5008951;28;20257;-56
2023/05/14 01:51:05;;;;;;;3.43;3.17;;;;;;;;;;4996975;28;20626;-56
2023/05/14 01:53:33;;;;;;;3.67;3.33;;;;;;;;;;4990486;28;20202;-56
2023/05/14 01:56:00;;;;;;;4.37;3.47;;;;;;;;;;4994173;28;20229;-57
2023/05/14 01:58:27;;;;;;;4.27;3.10;;;;;;;;;;4998799;28;20216;-56
2023/05/14 02:00:56;;;;;;;5.87;3.00;;;;;;;;;;4994536;28;20219;-56
2023/05/14 02:03:23;;;;;;;2.63;2.53;;;;;;;;;;4992814;28;20602;-57
2023/05/14 02:05:50;;;;;;;3.10;2.90;;;;;;;;;;4998324;28;20300;-56
2023/05/14 02:08:17;;;;;;;4.63;3.07;;;;;;;;;;5009845;28;20212;-56
2023/05/14 02:10:44;;;;;;;4.17;2.80;;;;;;;;;;5008409;28;20597;-56
2023/05/14 02:13:11;;;;;;;5.17;2.97;;;;;;;;;;5014232;28;20204;-57
2023/05/14 02:15:38;;;;;;;4.83;3.23;;;;;;;;;;5013768;28;20220;-56
2023/05/14 02:18:07;;;;;;;2.63;2.53;;;;;;;;;;5015381;28;20214;-56
2023/05/14 02:20:34;;;;;;;3.20;2.93;;;;;;;;;;5011645;28;20233;-57
2023/05/14 02:23:01;;;;;;;5.07;2.97;;;;;;;;;;5017162;28;20322;-56
2023/05/14 02:25:28;;;;;;;3.23;2.97;;;;;;;;;;5023573;28;20215;-57
2023/05/14 02:27:55;;;;;;;3.50;3.20;;;;;;;;;;5019530;28;20642;-56
2023/05/14 02:30:22;;;;;;;3.10;3.00;;;;;;;;;;5003727;28;20272;-56
2023/05/14 02:32:49;;;;;;;3.00;2.80;;;;;;;;;;4989909;28;20205;-56
2023/05/14 02:35:18;;;;;;;2.83;2.63;;;;;;;;;;4988064;28;20202;-57
2023/05/14 02:37:45;;;;;;;4.53;2.97;;;;;;;;;;4988181;28;20229;-57
2023/05/14 02:40:12;;;;;;;2.97;2.77;;;;;;;;;;4992096;28;20213;-56
2023/05/14 02:42:39;;;;;;;2.83;2.63;;;;;;;;;;4993482;28;20220;-57
2023/05/14 02:45:07;;;;;;;2.80;2.70;;;;;;;;;;4997695;28;20204;-57
2023/05/14 02:47:34;;;;;;;3.53;3.33;;;;;;;;;;5005943;28;20468;-57
2023/05/14 02:50:03;;;;;;;2.93;2.83;;;;;;;;;;5006083;28;20201;-56
2023/05/14 02:52:32;;;;;;;3.10;2.90;;;;;;;;;;5001175;28;20209;-56
2023/05/14 02:54:59;;;;;;;7.73;2.87;;;;;;;;;;4992268;28;20828;-57
2023/05/14 02:57:26;;;;;;;7.43;3.40;;;;;;;;;;4996876;28;20209;-55
2023/05/14 02:59:53;;;;;;;4.90;4.43;;;;;;;;;;4990870;28;20213;-56
2023/05/14 03:02:20;;;;;;;3.57;3.37;;;;;;;;;;4990921;28;20656;-56
2023/05/14 03:04:47;;;;;;;4.07;3.57;;;;;;;;;;5003442;28;20271;-56
2023/05/14 03:07:14;;;;;;;3.10;2.83;;;;;;;;;;5005887;28;20227;-56
2023/05/14 03:09:43;;;;;;;3.97;3.47;;;;;;;;;;4998960;28;20210;-56
2023/05/14 03:12:10;;;;;;;5.13;4.13;;;;;;;;;;4997789;28;20240;-56
2023/05/14 03:14:37;;;;;;;3.83;3.53;;;;;;;;;;5001524;28;20240;-55
2023/05/14 03:17:04;;;;;;;5.80;3.83;;;;;;;;;;4999661;28;20899;-56
2023/05/14 03:19:31;;;;;;;3.60;3.33;;;;;;;;;;4994553;28;20209;-56
2023/05/14 03:21:58;;;;;;;5.67;3.07;;;;;;;;;;5005376;28;20240;-56
2023/05/14 03:24:25;;;;;;;3.10;3.00;;;;;;;;;;4992861;28;20214;-57
2023/05/14 03:26:53;;;;;;;3.57;3.17;;;;;;;;;;4988234;28;20229;-56
2023/05/14 03:29:20;;;;;;;3.90;3.60;;;;;;;;;;5000460;28;20217;-56
2023/05/14 03:31:48;;;;;;;3.23;2.97;;;;;;;;;;5006379;28;20271;-56
2023/05/14 03:34:15;;;;;;;3.93;3.20;;;;;;;;;;5004959;28;20206;-56
2023/05/14 03:36:42;;;;;;;3.07;2.80;;;;;;;;;;5000133;28;20703;-56
2023/05/14 03:39:09;;;;;;;2.90;2.80;;;;;;;;;;4997719;28;20718;-57
2023/05/14 03:41:37;;;;;;;3.20;3.00;;;;;;;;;;4991128;28;20206;-56
2023/05/14 03:44:05;;;;;;;3.47;3.27;;;;;;;;;;4987197;28;20216;-57
2023/05/14 03:46:32;;;;;;;3.00;2.83;;;;;;;;;;4997359;28;20229;-56
2023/05/14 03:48:59;;;;;;;2.93;2.80;;;;;;;;;;4999835;28;20312;-56
2023/05/14 03:51:26;;;;;;;3.33;3.03;;;;;;;;;;4992112;28;20623;-57
2023/05/14 03:53:53;;;;;;;3.07;2.87;;;;;;;;;;5002859;28;20259;-56
2023/05/14 03:56:21;;;;;;;3.57;3.03;;;;;;;;;;4996213;28;20209;-57
2023/05/14 03:58:48;;;;;;;2.83;2.63;;;;;;;;;;5003905;28;20694;-56
2023/05/14 04:01:16;;;;;;;3.50;3.30;;;;;;;;;;4988518;28;20217;-56
2023/05/14 04:03:43;;;;;;;3.10;2.90;;;;;;;;;;5004984;28;20208;-55
2023/05/14 04:06:10;;;;;;;4.20;3.23;;;;;;;;;;4990318;28;20240;-56
2023/05/14 04:08:37;;;;;;;3.20;2.90;;;;;;;;;;4999957;28;20244;-56
2023/05/14 04:11:04;;;;;;;2.87;2.67;;;;;;;;;;4998601;28;20663;-55
2023/05/14 04:13:31;;;;;;;2.53;2.40;;;;;;;;;;4995139;28;20208;-56
2023/05/14 04:15:59;;;;;;;2.70;2.60;;;;;;;;;;4994521;28;20224;-56
2023/05/14 04:18:27;;;;;;;5.70;2.97;;;;;;;;;;4998898;28;20210;-56
2023/05/14 04:20:54;;;;;;;4.07;2.43;;;;;;;;;;5000950;28;20612;-56
2023/05/14 04:23:21;;;;;;;2.90;2.70;;;;;;;;;;5003148;28;20274;-56
2023/05/14 04:25:49;;;;;;;2.90;2.70;;;;;;;;;;4991521;28;20236;-56
2023/05/14 04:28:16;;;;;;;3.63;2.97;;;;;;;;;;4987679;28;20233;-56
2023/05/14 04:30:43;;;;;;;2.90;2.80;;;;;;;;;;5003061;28;20216;-56
2023/05/14 04:33:10;;;;;;;4.70;2.83;;;;;;;;;;4989165;28;20214;-56
2023/05/14 04:35:38;;;;;;;3.00;2.80;;;;;;;;;;4998709;28;20307;-56
2023/05/14 04:38:05;;;;;;;3.50;2.80;;;;;;;;;;4994043;28;20212;-56
2023/05/14 04:40:32;;;;;;;3.00;2.80;;;;;;;;;;4997616;28;20255;-56
2023/05/14 04:42:59;;;;;;;3.27;3.03;;;;;;;;;;5005383;28;20296;-55
2023/05/14 04:45:26;;;;;;;3.10;3.00;;;;;;;;;;5007715;28;20221;-56
2023/05/14 04:47:54;;;;;;;3.53;3.23;;;;;;;;;;5006364;28;20241;-56
2023/05/14 04:50:21;;;;;;;4.70;3.03;;;;;;;;;;4993139;28;20675;-56
2023/05/14 04:52:49;;;;;;;3.10;2.90;;;;;;;;;;5007908;28;20215;-56
2023/05/14 04:55:16;;;;;;;4.13;3.67;;;;;;;;;;5002405;28;20213;-56
2023/05/14 04:57:43;;;;;;;3.50;3.30;;;;;;;;;;4994249;28;20695;-56
2023/05/14 05:00:12;;;;;;;3.80;3.57;;;;;;;;;;5003280;28;20216;-56
2023/05/14 05:02:39;;;;;;;3.17;2.97;;;;;;;;;;5005468;28;20232;-56
2023/05/14 05:05:06;;;;;;;4.40;3.47;;;;;;;;;;4989660;28;20209;-56
2023/05/14 05:07:33;;;;;;;3.90;3.60;;;;;;;;;;4992617;28;20235;-56
2023/05/14 05:10:02;;;;;;;5.33;3.10;;;;;;;;;;4998810;28;20311;-56
2023/05/14 05:12:29;;;;;;;2.87;2.67;;;;;;;;;;5007201;28;20208;-56
2023/05/14 05:14:56;;;;;;;3.20;3.00;;;;;;;;;;5007481;28;20227;-56
2023/05/14 05:17:23;;;;;;;3.47;3.13;;;;;;;;;;5007621;28;20654;-56
2023/05/14 05:19:50;;;;;;;3.60;2.87;;;;;;;;;;5006081;28;20609;-56
2023/05/14 05:22:18;;;;;;;3.00;2.80;;;;;;;;;;4992933;28;20240;-56
2023/05/14 05:24:45;;;;;;;2.40;2.30;;;;;;;;;;5008341;28;20224;-56
2023/05/14 05:27:13;;;;;;;5.17;2.53;;;;;;;;;;5001400;28;20997;-56
2023/05/14 05:29:40;;;;;;;3.10;2.90;;;;;;;;;;5005205;28;20593;-56
2023/05/14 05:32:08;;;;;;;2.90;2.80;;;;;;;;;;5007051;28;20267;-56
2023/05/14 05:34:35;;;;;;;3.03;2.83;;;;;;;;;;5008490;28;20275;-56
2023/05/14 05:37:02;;;;;;;3.70;3.40;;;;;;;;;;5006772;28;20460;-56
2023/05/14 05:39:33;;;;;;;5.63;3.23;;;;;;;;;;5007246;28;20213;-56
2023/05/14 05:42:01;;;;;;;3.63;3.33;;;;;;;;;;4991290;28;20260;-56
2023/05/14 05:44:29;;;;;;;3.50;3.20;;;;;;;;;;5004952;28;20316;-56
2023/05/14 05:46:56;;;;;;;5.90;3.30;;;;;;;;;;5007546;28;20220;-56
2023/05/14 05:49:25;;;;;;;3.60;3.30;;;;;;;;;;5000168;28;20212;-56
2023/05/14 05:51:55;;;;;;;3.27;3.07;;;;;;;;;;5006782;28;20619;-57
2023/05/14 05:54:24;;;;;;;3.57;3.37;;;;;;;;;;4995461;28;20222;-57
2023/05/14 05:56:51;;;;;;;12.37;3.30;;;;;;;;;;5002202;28;20320;-58
2023/05/14 05:59:18;;;;;;;3.40;3.20;;;;;;;;;;4995753;28;20263;-57
2023/05/14 06:01:47;;;;;;;3.60;3.40;;;;;;;;;;4998411;28;20970;-57
2023/05/14 06:04:14;;;;;;;3.60;3.30;;;;;;;;;;5004408;28;20304;-55
2023/05/14 06:06:41;;;;;;;5.40;3.60;;;;;;;;;;4999803;28;20228;-55
2023/05/14 06:09:08;;;;;;;4.60;3.60;;;;;;;;;;4998326;28;20233;-55
2023/05/14 06:11:36;;;;;;;3.87;3.67;;;;;;;;;;5001803;28;20209;-55
2023/05/14 06:14:03;;;;;;;3.50;3.20;;;;;;;;;;4992314;28;20213;-55
2023/05/14 06:16:30;;;;;;;5.33;4.23;;;;;;;;;;5019589;28;20213;-57
2023/05/14 06:18:58;;;;;;;4.00;3.70;;;;;;;;;;5000752;28;20212;-57
2023/05/14 06:21:25;;;;;;;3.67;3.37;;;;;;;;;;5006388;28;20370;-57
2023/05/14 06:23:52;;;;;;;6.43;4.27;;;;;;;;;;5005418;28;20248;-57
2023/05/14 06:26:19;;;;;;;5.90;4.17;;;;;;;;;;4991743;28;20222;-57
2023/05/14 06:28:47;;;;;;;4.57;4.13;;;;;;;;;;5006928;28;20374;-57
2023/05/14 06:31:14;;;;;;;4.30;3.90;;;;;;;;;;5004882;28;20285;-57
2023/05/14 06:33:41;;;;;;;3.67;3.40;;;;;;;;;;5006844;28;20368;-57
2023/05/14 06:36:10;;;;;;;4.65;4.25;;;;;;;;;;5001784;28;20210;-58
2023/05/14 06:38:37;;;;;;;4.15;3.80;;;;;;;;;;4989342;28;20213;-57
2023/05/14 06:41:04;;;;;;;3.17;2.97;;;;;;;;;;4989996;28;20205;-58
2023/05/14 06:43:31;;;;;;;3.47;3.27;;;;;;;;;;4995180;28;20298;-58
2023/05/14 06:45:58;;;;;;;4.13;3.83;;;;;;;;;;4997399;28;20810;-58
2023/05/14 06:48:26;;;;;;;3.35;3.05;;;;;;;;;;5001810;28;20245;-60
2023/05/14 06:50:53;;;;;;;3.40;3.10;;;;;;;;;;4994875;28;20217;-58
2023/05/14 06:53:22;;;;;;;2.78;2.60;;;;;;;;;;4992557;28;20213;-58
2023/05/14 06:55:49;;;;;;;2.72;2.63;;;;;;;;;;5006330;28;20348;-58
2023/05/14 06:58:16;;;;;;;2.40;2.30;;;;;;;;;;5000441;28;20210;-58
2023/05/14 07:00:43;;;;;;;2.38;2.25;;;;;;;;;;5003085;28;20672;-58
2023/05/14 07:03:10;;;;;;;2.60;2.38;;;;;;;;;;4995907;28;20704;-58
2023/05/14 07:05:39;;;;;;;1.80;1.70;;;;;;;;;;5002700;28;20229;-55
2023/05/14 07:08:06;;;;;;;1.98;1.88;;;;;;;;;;5004014;28;20291;-58
2023/05/14 07:10:35;;;;;;;1.90;1.80;;;;;;;;;;5002236;28;20594;-58
2023/05/14 07:13:02;;;;;;;2.08;1.98;;;;;;;;;;4996129;28;20944;-58
2023/05/14 07:15:29;;;;;;;1.73;1.63;;;;;;;;;;4988243;28;20213;-58
2023/05/14 07:17:56;;;;;;;1.65;1.65;;;;;;;;;;4998825;28;20280;-58
2023/05/14 07:20:23;;;;;;;1.95;1.80;;;;;;;;;;4987368;28;20237;-57
2023/05/14 07:22:51;;;;;;;1.70;1.60;;;;;;;;;;4995876;28;20255;-57
2023/05/14 07:25:18;;;;;;;1.55;1.45;;;;;;;;;;5006153;28;20213;-57
2023/05/14 07:27:46;;;;;;;1.50;1.50;;;;;;;;;;5005141;28;20233;-57
2023/05/14 07:30:14;;;;;;;1.38;1.33;;;;;;;;;;5006935;28;20213;-57
2023/05/14 07:32:41;;;;;;;1.20;1.20;;;;;;;;;;5005646;28;20213;-57
2023/05/14 07:35:08;;;;;;;1.70;1.60;;;;;;;;;;5000170;28;20209;-57
2023/05/14 07:37:35;;;;;;;1.77;1.77;;;;;;;;;;5005101;28;20216;-57
2023/05/14 07:40:02;;;;;;;1.40;1.40;;;;;;;;;;4996044;28;20201;-57
2023/05/14 07:42:29;;;;;;;1.50;1.50;;;;;;;;;;5004337;28;20213;-57
2023/05/14 07:44:58;;;;;;;1.80;1.70;;;;;;;;;;4994661;28;20205;-57
2023/05/14 07:47:25;;;;;;;1.67;1.58;;;;;;;;;;5003186;28;20232;-57
2023/05/14 07:49:54;;;;;;;1.42;1.40;;;;;;;;;;5002765;28;20242;-57
2023/05/14 07:52:21;;;;;;;1.38;1.38;;;;;;;;;;4991007;28;20626;-57
2023/05/14 07:54:48;;;;;;;1.55;1.55;;;;;;;;;;4997991;28;20217;-57
2023/05/14 07:57:15;;;;;;;1.70;1.60;;;;;;;;;;5002417;28;20209;-57
2023/05/14 07:59:42;;;;;;;1.75;1.65;;;;;;;;;;5004281;28;20600;-56
2023/05/14 08:02:11;;;;;;;1.42;1.42;;;;;;;;;;5005470;28;20213;-56
2023/05/14 08:04:38;;;;;;;1.45;1.35;;;;;;;;;;4996136;28;20683;-56
2023/05/14 08:07:06;;;;;;;1.42;1.42;;;;;;;;;;5002775;28;20239;-56
2023/05/14 08:09:33;;;;;;;1.58;1.48;;;;;;;;;;4999393;28;20229;-59
2023/05/14 08:12:00;;;;;;;1.48;1.48;;;;;;;;;;5004001;28;20215;-58
2023/05/14 08:14:28;;;;;;;1.17;1.17;;;;;;;;;;4988677;28;20213;-59
2023/05/14 08:16:55;;;;;;;1.45;1.45;;;;;;;;;;5004949;28;20295;-59
2023/05/14 08:19:26;;;;;;;1.83;1.73;;;;;;;;;;5006364;28;20220;-59
2023/05/14 08:21:53;;;;;;;1.67;1.67;;;;;;;;;;5002285;28;20228;-59
2023/05/14 08:24:20;;;;;;;1.83;1.73;;;;;;;;;;5001119;28;20267;-58
2023/05/14 08:26:47;;;;;;;3.83;2.20;;;;;;;;;;5007415;28;20197;-60
2023/05/14 08:29:14;;;;;;;1.50;1.50;;;;;;;;;;4995610;28;20220;-59
2023/05/14 08:31:41;;;;;;;2.47;1.70;;;;;;;;;;4999432;28;20645;-59
2023/05/14 08:34:08;;;;;;;2.10;2.00;;;;;;;;;;4990888;28;20522;-58
2023/05/14 08:36:36;;;;;;;1.77;1.67;;;;;;;;;;5001438;28;20902;-58
2023/05/14 08:39:03;;;;;;;2.08;1.98;;;;;;;;;;5007108;28;20205;-57
2023/05/14 08:41:30;;;;;;;1.80;1.70;;;;;;;;;;5008734;28;20876;-58
2023/05/14 08:44:02;;;;;;;1.58;1.58;;;;;;;;;;5001292;28;20240;-62
2023/05/14 08:46:30;;;;;;;1.60;1.40;;;;;;;;;;5000796;28;20213;-60
2023/05/14 08:49:02;;;;;;;1.63;1.52;;;;;;;;;;4995555;28;20237;-58
2023/05/14 08:51:30;;;;;;;1.30;1.30;;;;;;;;;;4993479;28;20210;-59
2023/05/14 08:54:01;;;;;;;0.93;0.73;;;;;;;;;;4990750;28;20210;-58
2023/05/14 08:56:28;;;;;;;1.38;1.38;;;;;;;;;;5006372;28;20687;-58
2023/05/14 08:58:55;;;;;;;1.67;1.63;;;;;;;;;;5001290;28;20458;-57
2023/05/14 09:01:22;;;;;;;1.27;1.20;;;;;;;;;;5002080;28;20216;-57
2023/05/14 09:03:49;;;;;;;1.52;1.52;;;;;;;;;;4988534;28;20212;-58
2023/05/14 09:06:17;;;;;;;1.38;1.25;;;;;;;;;;4988070;28;20724;-58
2023/05/14 09:08:44;;;;;;;1.27;1.27;;;;;;;;;;4992062;28;20598;-57
2023/05/14 09:11:13;;;;;;;1.40;1.40;;;;;;;;;;4996078;28;20268;-57
2023/05/14 09:13:40;;;;;;;1.38;1.33;;;;;;;;;;4991704;28;20320;-58
2023/05/14 09:16:07;;;;;;;1.92;1.83;;;;;;;;;;4993058;28;20207;-58
2023/05/14 09:18:36;;;;;;;2.75;1.88;;;;;;;;;;4991122;28;20202;-57
2023/05/14 09:21:03;;;;;;;2.45;1.40;;;;;;;;;;4990278;28;20229;-57
2023/05/14 09:23:33;;;;;;;1.17;1.17;;;;;;;;;;4990033;28;20249;-58
2023/05/14 09:26:04;;;;;;;1.65;1.55;;;;;;;;;;4996221;28;20303;-57
2023/05/14 09:28:32;;;;;;;1.83;1.73;;;;;;;;;;4988301;28;20276;-57
2023/05/14 09:30:59;;;;;;;1.70;1.60;;;;;;;;;;4988866;28;20213;-58
2023/05/14 09:33:27;;;;;;;2.10;1.90;;;;;;;;;;5000003;28;20220;-59
2023/05/14 09:35:56;;;;;;;1.90;1.80;;;;;;;;;;4993338;28;20813;-58
2023/05/14 09:38:24;;;;;;;2.83;1.40;;;;;;;;;;5008100;28;20216;-58
2023/05/14 09:40:51;;;;;;;1.77;1.77;;;;;;;;;;5007709;28;20205;-57
2023/05/14 09:43:18;;;;;;;1.63;1.63;;;;;;;;;;5008353;28;20338;-58
2023/05/14 09:45:46;;;;;;;1.50;1.35;;;;;;;;;;4999986;28;20272;-57
2023/05/14 09:48:13;;;;;;;2.17;2.10;;;;;;;;;;5004458;28;20212;-57
2023/05/14 09:50:42;;;;;;;1.80;1.80;;;;;;;;;;4988844;28;20221;-57
2023/05/14 09:53:10;;;;;;;1.42;1.42;;;;;;;;;;5005914;28;20584;-58
2023/05/14 09:55:37;;;;;;;2.03;2.03;;;;;;;;;;5005120;28;20878;-58
2023/05/14 09:58:04;;;;;;;1.80;1.70;;;;;;;;;;4991796;28;20210;-57
2023/05/14 10:00:32;;;;;;;1.60;1.60;;;;;;;;;;4988472;28;20219;-57
2023/05/14 10:03:05;;;;;;;1.52;1.52;;;;;;;;;;4991164;28;20680;-58
2023/05/14 10:05:33;;;;;;;1.92;1.83;;;;;;;;;;4996976;28;20233;-58
2023/05/14 10:08:03;;;;;;;1.65;1.58;;;;;;;;;;4999440;28;20636;-58
2023/05/14 10:10:30;;;;;;;2.80;1.77;;;;;;;;;;5008013;28;20209;-58
2023/05/14 10:12:58;;;;;;;1.30;1.30;;;;;;;;;;4995382;28;20236;-58
2023/05/14 10:15:27;;;;;;;1.30;1.30;;;;;;;;;;4998918;28;20612;-58
2023/05/14 10:17:56;;;;;;;1.75;1.38;;;;;;;;;;4997217;28;20213;-57
2023/05/14 10:20:25;;;;;;;1.48;1.48;;;;;;;;;;4988470;28;20276;-58
2023/05/14 10:22:52;;;;;;;1.75;1.70;;;;;;;;;;4990321;28;21002;-57
2023/05/14 10:25:20;;;;;;;1.63;1.52;;;;;;;;;;4997928;28;20205;-57
2023/05/14 10:27:47;;;;;;;1.15;1.15;;;;;;;;;;5006453;28;20213;-58
2023/05/14 10:30:14;;;;;;;1.40;1.27;;;;;;;;;;5007086;28;20275;-57
2023/05/14 10:32:42;;;;;;;1.52;1.50;;;;;;;;;;5005518;28;20218;-57
2023/05/14 10:35:17;;;;;;;3.25;1.65;;;;;;;;;;5006889;28;20304;-58
2023/05/14 10:37:46;;;;;;;1.40;1.40;;;;;;;;;;5007187;28;20207;-58
2023/05/14 10:40:13;;;;;;;1.25;1.25;;;;;;;;;;5007257;28;20299;-58
2023/05/14 10:42:42;;;;;;;0.85;0.85;;;;;;;;;;5005297;28;20678;-59
2023/05/14 10:45:10;;;;;;;1.38;1.38;;;;;;;;;;5006237;28;20596;-58
2023/05/14 10:47:38;;;;;;;1.58;1.48;;;;;;;;;;5006730;28;20650;-58
2023/05/14 10:50:06;;;;;;;1.48;1.48;;;;;;;;;;4996768;28;20690;-58
2023/05/14 10:52:33;;;;;;;1.17;1.17;;;;;;;;;;4987210;28;20221;-58
2023/05/14 10:55:02;;;;;;;1.23;1.10;;;;;;;;;;4993326;28;20213;-58
2023/05/14 10:57:30;;;;;;;1.17;1.17;;;;;;;;;;4995172;28;20616;-58
2023/05/14 10:59:58;;;;;;;1.13;1.13;;;;;;;;;;5005494;28;20233;-58
2023/05/14 11:02:26;;;;;;;1.10;1.10;;;;;;;;;;5006772;28;20217;-64
2023/05/14 11:04:57;;;;;;;1.27;1.17;;;;;;;;;;5003724;28;20217;-57
2023/05/14 11:07:25;;;;;;;1.10;1.10;;;;;;;;;;5005177;28;20962;-57
2023/05/14 11:09:52;;;;;;;0.73;0.73;;;;;;;;;;5006174;28;20259;-57
2023/05/14 11:12:21;;;;;;;0.93;0.93;;;;;;;;;;5006449;28;20299;-56
2023/05/14 11:14:48;;;;;;;0.80;0.80;;;;;;;;;;5006304;28;20213;-56
2023/05/14 11:17:16;;;;;;;1.17;1.17;;;;;;;;;;5002875;28;20219;-57
2023/05/14 11:19:44;;;;;;;1.23;1.23;;;;;;;;;;4998627;28;20312;-56
2023/05/14 11:22:13;;;;;;;1.58;1.30;;;;;;;;;;5004119;28;20228;-56
2023/05/14 11:24:40;;;;;;;1.13;1.08;;;;;;;;;;5004360;28;20217;-57
2023/05/14 11:27:08;;;;;;;1.38;1.05;;;;;;;;;;5003960;28;20294;-56
2023/05/14 11:29:37;;;;;;;1.15;1.15;;;;;;;;;;4997276;28;20791;-56
2023/05/14 11:32:05;;;;;;;1.10;1.10;;;;;;;;;;4995825;28;20228;-56
2023/05/14 11:34:33;;;;;;;1.23;1.20;;;;;;;;;;5003238;28;20202;-56
2023/05/14 11:37:03;;;;;;;0.95;0.95;;;;;;;;;;4999570;28;20213;-56
2023/05/14 11:39:31;;;;;;;0.82;0.82;;;;;;;;;;5001851;28;20328;-55
2023/05/14 11:41:58;;;;;;;0.82;0.82;;;;;;;;;;4996851;28;20243;-55
2023/05/14 11:44:25;;;;;;;1.00;1.00;;;;;;;;;;5004984;28;20291;-56
2023/05/14 11:46:57;;;;;;;1.30;1.30;;;;;;;;;;4994415;28;20209;-55
2023/05/14 11:49:24;;;;;;;0.90;0.90;;;;;;;;;;5002619;28;20236;-56
2023/05/14 11:51:57;;;;;;;0.95;0.95;;;;;;;;;;4992998;28;20214;-55
2023/05/14 11:54:26;;;;;;;0.85;0.85;;;;;;;;;;5002013;28;21000;-56
2023/05/14 11:56:53;;;;;;;1.05;1.05;;;;;;;;;;5005693;28;20213;-57
2023/05/14 11:59:20;;;;;;;0.93;0.93;;;;;;;;;;4995951;28;20201;-56
2023/05/14 12:01:47;;;;;;;1.20;1.20;;;;;;;;;;5012574;28;20219;-57
2023/05/14 12:04:17;;;;;;;0.85;0.85;;;;;;;;;;5005395;28;20212;-56
2023/05/14 12:06:45;;;;;;;1.05;1.05;;;;;;;;;;5005593;28;20244;-56
2023/05/14 12:09:15;;;;;;;1.20;1.20;;;;;;;;;;5000512;28;20240;-59
2023/05/14 12:11:42;;;;;;;1.02;1.02;;;;;;;;;;5004214;28;20702;-58
2023/05/14 12:14:12;;;;;;;1.10;1.10;;;;;;;;;;4996144;28;20275;-58
2023/05/14 12:16:41;;;;;;;1.40;1.10;;;;;;;;;;5010280;28;20303;-59
2023/05/14 12:19:09;;;;;;;1.00;1.00;;;;;;;;;;5011002;28;20213;-57
2023/05/14 12:21:37;;;;;;;1.00;1.00;;;;;;;;;;4985487;28;20834;-58
2023/05/14 12:24:05;;;;;;;1.25;1.25;;;;;;;;;;4986778;28;20256;-58
2023/05/14 12:26:33;;;;;;;0.80;0.80;;;;;;;;;;5003740;28;21001;-58
2023/05/14 12:29:00;;;;;;;1.00;1.00;;;;;;;;;;4996289;28;20221;-57
2023/05/14 12:31:30;;;;;;;0.90;0.90;;;;;;;;;;4994217;28;20229;-59
2023/05/14 12:33:58;;;;;;;1.63;1.52;;;;;;;;;;4993055;28;20201;-57
2023/05/14 12:36:25;;;;;;;1.40;1.27;;;;;;;;;;5005555;28;20224;-57
2023/05/14 12:38:59;;;;;;;1.17;1.17;;;;;;;;;;5004945;28;20209;-57
2023/05/14 12:41:26;;;;;;;13.20;6.00;;;;;;;;;;4992943;28;20213;-58
2023/05/14 12:43:53;;;;;;;1.13;1.13;;;;;;;;;;4997910;28;20479;-59
2023/05/14 12:46:20;;;;;;;1.20;1.20;;;;;;;;;;5002675;28;20251;-57
2023/05/14 12:48:47;;;;;;;1.10;1.10;;;;;;;;;;5001942;28;20283;-59
2023/05/14 12:51:14;;;;;;;0.98;0.98;;;;;;;;;;5002772;28;20526;-58
2023/05/14 12:53:41;;;;;;;1.15;1.10;;;;;;;;;;5001491;28;20209;-58
2023/05/14 12:56:09;;;;;;;0.90;0.90;;;;;;;;;;5001566;28;20312;-59
2023/05/14 12:58:36;;;;;;;20.92;12.10;;;;;;;;;;4993485;28;20420;-59
2023/05/14 13:01:03;;;;;;;0.98;0.98;;;;;;;;;;5004772;28;20655;-59
2023/05/14 13:03:30;;;;;;;1.40;1.10;;;;;;;;;;5002923;28;20644;-59
2023/05/14 13:05:57;;;;;;;1.00;1.00;;;;;;;;;;4988887;28;20218;-58
2023/05/14 13:08:25;;;;;;;0.90;0.90;;;;;;;;;;5006070;28;20217;-59
2023/05/14 13:10:52;;;;;;;1.02;1.02;;;;;;;;;;5007965;28;20229;-59
2023/05/14 13:13:20;;;;;;;1.25;1.25;;;;;;;;;;5006053;28;20224;-59
2023/05/14 13:15:47;;;;;;;0.98;0.98;;;;;;;;;;4999186;28;20275;-59
2023/05/14 13:18:14;;;;;;;2.15;1.10;;;;;;;;;;4991895;28;20213;-59
2023/05/14 13:20:41;;;;;;;1.10;1.10;;;;;;;;;;4992444;28;20272;-59
2023/05/14 13:23:08;;;;;;;1.05;1.05;;;;;;;;;;5006754;28;20248;-59
2023/05/14 13:25:36;;;;;;;1.20;1.20;;;;;;;;;;5007525;28;20680;-59
2023/05/14 13:28:03;;;;;;;1.00;1.00;;;;;;;;;;5007618;28;20307;-59
2023/05/14 13:30:37;;;;;;;1.15;1.15;;;;;;;;;;5005604;28;20236;-60
2023/05/14 13:33:05;;;;;;;1.00;1.00;;;;;;;;;;4993887;28;20216;-58
2023/05/14 13:35:33;;;;;;;1.20;1.00;;;;;;;;;;5007913;28;20253;-58
2023/05/14 13:38:00;;;;;;;1.92;1.00;;;;;;;;;;5006922;28;20739;-58
2023/05/14 13:40:27;;;;;;;1.02;1.02;;;;;;;;;;5003862;28;20763;-59
2023/05/14 13:42:54;;;;;;;1.00;1.00;;;;;;;;;;5001653;28;20213;-61
2023/05/14 13:45:21;;;;;;;2.25;1.13;;;;;;;;;;4999151;28;20206;-57
2023/05/14 13:47:49;;;;;;;1.00;1.00;;;;;;;;;;5000538;28;20279;-59
2023/05/14 13:50:16;;;;;;;1.00;1.00;;;;;;;;;;5005626;28;20979;-58
2023/05/14 13:52:43;;;;;;;1.65;1.08;;;;;;;;;;5004761;28;20212;-58
2023/05/14 13:55:10;;;;;;;1.20;1.20;;;;;;;;;;5006980;28;20221;-58
2023/05/14 13:57:38;;;;;;;1.35;1.30;;;;;;;;;;5006951;28;20212;-59
2023/05/14 14:00:06;;;;;;;1.05;1.05;;;;;;;;;;4994033;28;20393;-59
2023/05/14 14:02:33;;;;;;;1.27;1.27;;;;;;;;;;5006233;28;20609;-59
2023/05/14 14:05:02;;;;;;;1.10;1.10;;;;;;;;;;4988110;28;20214;-58
2023/05/14 14:07:29;;;;;;;1.40;1.30;;;;;;;;;;4988121;28;20723;-59
2023/05/14 14:09:56;;;;;;;1.05;1.05;;;;;;;;;;4996848;28;20239;-59
2023/05/14 14:12:23;;;;;;;1.80;1.52;;;;;;;;;;4999987;28;20298;-58
2023/05/14 14:14:51;;;;;;;4.88;3.70;;;;;;;;;;4995204;28;20212;-58
2023/05/14 14:17:18;;;;;;;1.00;1.00;;;;;;;;;;4997778;28;20208;-58
2023/05/14 14:19:45;;;;;;;1.08;1.08;;;;;;;;;;5009779;28;20228;-58
2023/05/14 14:22:16;;;;;;;1.08;1.08;;;;;;;;;;5011375;28;20294;-58
2023/05/14 14:24:43;;;;;;;1.05;1.05;;;;;;;;;;5015350;28;20205;-59
2023/05/14 14:27:10;;;;;;;1.05;1.05;;;;;;;;;;4994472;28;20210;-59
2023/05/14 14:29:37;;;;;;;1.00;1.00;;;;;;;;;;4990453;28;20235;-59
2023/05/14 14:32:04;;;;;;;1.00;1.00;;;;;;;;;;4997939;28;20236;-59
2023/05/14 14:34:31;;;;;;;1.30;1.30;;;;;;;;;;4988719;28;20217;-59
2023/05/14 14:36:58;;;;;;;1.10;1.10;;;;;;;;;;4988474;28;20260;-59
2023/05/14 14:39:27;;;;;;;1.20;1.20;;;;;;;;;;4992082;28;20644;-58
2023/05/14 14:41:54;;;;;;;1.17;1.17;;;;;;;;;;4995198;28;20209;-58
2023/05/14 14:44:21;;;;;;;1.20;1.20;;;;;;;;;;5006256;28;20213;-59
2023/05/14 14:46:48;;;;;;;0.93;0.93;;;;;;;;;;5006469;28;20683;-59